Time;durP1;ratioP1;P1;durP2;ratioP2;P2;SDS_P1;SDS_P2;PMS_P1;PMS_P2;Temp;Humidity;BMP_temperature;BMP_pressure;BME280_temperature;BME280_humidity;BME280_pressure;Samples;Min_cycle;Max_cycle;Signal;HPM_P1;HPM_P2
2021/06/02 00:00:20;;;;;;;7.77;3.27;;;;;;;16.98;46.19;97845.97;8350047;28;20211;-89
2021/06/02 00:04:24;;;;;;;7.70;3.50;;;;;;;16.87;46.63;97838.03;8347847;28;20239;-88
2021/06/02 00:08:29;;;;;;;4.60;3.40;;;;;;;16.86;46.11;97838.16;8349255;28;20205;-88
2021/06/02 00:12:31;;;;;;;5.17;3.90;;;;;;;16.79;46.00;97838.56;8349671;28;20205;-88
2021/06/02 00:16:34;;;;;;;5.53;3.50;;;;;;;16.79;46.49;97835.09;8348078;28;20499;-88
2021/06/02 00:20:36;;;;;;;5.07;3.50;;;;;;;16.72;46.93;97842.56;8348400;28;20211;-88
2021/06/02 00:24:40;;;;;;;6.83;3.90;;;;;;;16.64;47.43;97842.28;8348403;28;20200;-89
2021/06/02 00:28:43;;;;;;;6.50;4.10;;;;;;;16.51;47.50;97829.25;8352879;28;20228;-89
2021/06/02 00:32:45;;;;;;;5.30;3.87;;;;;;;16.57;47.50;97841.03;8355706;28;20210;-89
2021/06/02 00:36:49;;;;;;;5.50;3.70;;;;;;;16.56;47.38;97828.91;8354208;28;20205;-89
2021/06/02 00:40:53;;;;;;;4.73;3.80;;;;;;;16.49;47.61;97835.53;8355698;28;20310;-88
2021/06/02 00:44:56;;;;;;;6.97;4.20;;;;;;;16.49;47.77;97835.53;8355064;28;20200;-89
2021/06/02 00:49:00;;;;;;;4.60;3.67;;;;;;;16.48;47.74;97832.06;8355003;28;20228;-88
2021/06/02 00:53:02;;;;;;;6.17;3.90;;;;;;;16.36;47.52;97839.00;8354886;28;20222;-89
2021/06/02 00:57:13;;;;;;;5.37;4.10;;;;;;;16.30;47.90;97843.81;8354270;28;20213;-88
2021/06/02 01:01:16;;;;;;;5.00;3.83;;;;;;;16.33;48.00;97838.38;8355114;28;20267;-89
2021/06/02 01:05:20;;;;;;;6.00;3.83;;;;;;;16.37;47.83;97840.66;8355883;28;20201;-88
2021/06/02 01:09:25;;;;;;;7.50;4.37;;;;;;;16.24;47.98;97850.31;8354164;28;20247;-89
2021/06/02 01:13:30;;;;;;;6.40;3.87;;;;;;;16.11;47.61;97832.03;8355704;28;20211;-88
2021/06/02 01:17:33;;;;;;;11.20;4.70;;;;;;;16.13;47.73;97845.81;8359472;28;20204;-87
2021/06/02 01:21:39;;;;;;;6.37;4.40;;;;;;;16.09;48.09;97854.81;8358298;28;20204;-87
2021/06/02 01:25:44;;;;;;;8.17;4.10;;;;;;;16.10;47.89;97853.03;8349502;28;20192;-87
2021/06/02 01:29:47;;;;;;;8.47;4.10;;;;;;;16.15;47.97;97849.16;8351825;28;20433;-87
2021/06/02 01:33:56;;;;;;;8.43;4.40;;;;;;;16.01;48.38;97850.09;8351596;28;20340;-87
2021/06/02 01:38:16;;;;;;;5.60;4.00;;;;;;;15.94;48.54;97848.84;8350717;28;20193;-87
2021/06/02 01:42:26;;;;;;;5.13;4.13;;;;;;;15.94;48.67;97845.41;8351896;28;20208;-87
2021/06/02 01:46:53;;;;;;;10.23;4.77;;;;;;;15.95;48.75;97857.50;8352710;28;20392;-87
2021/06/02 01:51:37;;;;;;;7.20;4.03;;;;;;;15.90;48.69;97863.06;8355127;28;20237;-87
2021/06/02 01:56:09;;;;;;;6.57;4.10;;;;;;;15.86;48.94;97864.22;8219207;29;20458;-89
2021/06/02 02:00:42;;;;;;;7.97;3.93;;;;;;;15.87;48.74;97863.25;8298328;28;20232;-89
2021/06/02 02:05:10;;;;;;;6.97;4.60;;;;;;;15.80;49.05;97870.69;8351167;28;20239;-85
2021/06/02 02:09:14;;;;;;;8.77;4.60;;;;;;;15.67;49.48;97864.56;8330839;28;20255;-88
2021/06/02 02:13:26;;;;;;;5.53;4.10;;;;;;;15.67;49.48;97868.94;8352575;28;20494;-87
2021/06/02 02:17:47;;;;;;;5.33;4.43;;;;;;;15.57;49.21;97868.72;8353069;28;20460;-88
2021/06/02 02:21:55;;;;;;;7.37;4.40;;;;;;;15.39;49.49;97869.00;8350889;28;20224;-86
2021/06/02 02:25:59;;;;;;;7.67;4.00;;;;;;;15.34;49.78;97859.78;8350453;28;20204;-88
2021/06/02 02:30:05;;;;;;;4.63;4.20;;;;;;;15.43;49.97;97860.03;8350003;28;20316;-88
2021/06/02 02:34:31;;;;;;;7.63;4.43;;;;;;;15.40;49.92;97865.47;8349770;28;20200;-86
2021/06/02 02:38:48;;;;;;;4.87;3.83;;;;;;;15.44;49.71;97866.94;8349380;28;20208;-87
2021/06/02 02:42:56;;;;;;;7.93;4.40;;;;;;;15.34;50.04;97865.84;8349145;28;20193;-87
2021/06/02 02:47:04;;;;;;;6.30;4.33;;;;;;;15.27;50.10;97867.19;8349360;28;20200;-87
2021/06/02 02:51:24;;;;;;;10.73;4.70;;;;;;;15.30;49.65;97874.81;8348185;28;20418;-87
2021/06/02 02:55:29;;;;;;;4.57;3.90;;;;;;;15.19;50.04;97875.53;8348701;28;20393;-86
2021/06/02 02:59:36;;;;;;;5.07;3.97;;;;;;;15.02;50.39;97878.34;8349977;28;20402;-89
2021/06/02 03:03:42;;;;;;;5.60;3.80;;;;;;;15.01;50.18;97885.34;8350644;28;20229;-89
2021/06/02 03:07:51;;;;;;;5.73;4.00;;;;;;;15.03;50.30;97880.03;8349472;28;20223;-88
2021/06/02 03:12:01;;;;;;;7.20;3.83;;;;;;;15.07;50.15;97891.13;8349042;28;20232;-88
2021/06/02 03:16:07;;;;;;;7.57;4.33;;;;;;;14.90;50.44;97892.19;8349215;28;20200;-88
2021/06/02 03:20:15;;;;;;;8.23;4.53;;;;;;;14.88;51.01;97892.28;8348965;28;20203;-87
2021/06/02 03:24:32;;;;;;;9.27;4.27;;;;;;;14.89;50.74;97896.56;8350508;28;20201;-88
2021/06/02 03:28:56;;;;;;;8.10;4.30;;;;;;;14.79;51.02;97904.13;8348610;28;20201;-85
2021/06/02 03:33:21;;;;;;;7.30;4.50;;;;;;;14.70;50.79;97896.03;8348439;28;20230;-87
2021/06/02 03:37:32;;;;;;;7.10;4.40;;;;;;;14.63;51.09;97895.59;8348412;28;20207;-86
2021/06/02 03:41:52;;;;;;;6.53;4.23;;;;;;;14.71;50.91;97908.97;8348127;28;20492;-87
2021/06/02 03:46:07;;;;;;;4.83;4.40;;;;;;;14.75;51.03;97913.06;8347603;28;20203;-85
2021/06/02 03:50:14;;;;;;;7.63;4.00;;;;;;;14.74;51.00;97911.41;8347684;28;20255;-84
2021/06/02 03:54:23;;;;;;;5.87;4.10;;;;;;;14.75;50.81;97905.22;8347635;28;20363;-86
2021/06/02 03:58:36;;;;;;;5.50;4.30;;;;;;;14.76;51.10;97914.75;8347872;28;20502;-85
2021/06/02 04:02:55;;;;;;;6.13;3.93;;;;;;;14.71;50.71;97910.75;8347008;28;20527;-86
2021/06/02 04:07:04;;;;;;;6.17;4.60;;;;;;;14.66;50.66;97919.69;8337937;28;20193;-86
2021/06/02 04:11:17;;;;;;;5.87;4.00;;;;;;;14.79;50.72;97911.09;8347351;28;20252;-85
2021/06/02 04:15:23;;;;;;;13.73;5.43;;;;;;;14.64;51.16;97918.94;8347878;28;20460;-86
2021/06/02 04:19:28;;;;;;;8.87;4.53;;;;;;;14.60;51.40;97921.81;8348416;28;20201;-85
2021/06/02 04:23:32;;;;;;;5.47;4.83;;;;;;;14.54;51.39;97920.41;8348074;28;20339;-85
2021/06/02 04:27:34;;;;;;;6.73;4.87;;;;;;;14.63;51.65;97925.06;8348137;28;20204;-85
2021/06/02 04:31:40;;;;;;;6.57;4.13;;;;;;;14.80;51.41;97929.25;8353672;28;20243;-86
2021/06/02 04:35:44;;;;;;;6.87;4.53;;;;;;;14.52;51.92;97905.78;8352508;28;20205;-86
2021/06/02 04:39:46;;;;;;;6.73;4.53;;;;;;;14.72;51.35;97931.50;8347274;28;20204;-87
2021/06/02 04:43:49;;;;;;;7.80;4.60;;;;;;;14.81;51.46;97928.34;8346802;28;20200;-86
2021/06/02 04:47:53;;;;;;;5.23;4.57;;;;;;;14.82;51.81;97932.59;8346707;28;20207;-86
2021/06/02 04:52:21;;;;;;;6.20;4.70;;;;;;;14.86;51.46;97943.69;8346173;28;20547;-86
2021/06/02 04:57:01;;;;;;;5.47;4.80;;;;;;;14.97;50.95;97937.81;8346710;28;20385;-84
2021/06/02 05:01:30;;;;;;;6.83;4.83;;;;;;;15.02;51.11;97938.34;8345522;28;20204;-83
2021/06/02 05:06:14;;;;;;;6.13;5.03;;;;;;;15.07;51.29;97938.06;8312939;28;20201;-84
2021/06/02 05:10:55;;;;;;;6.27;5.10;;;;;;;15.14;51.07;97950.63;8313276;28;20391;-86
2021/06/02 05:15:29;;;;;;;7.50;4.90;;;;;;;15.18;51.03;97951.25;8317364;28;20201;-86
2021/06/02 05:20:18;;;;;;;6.10;5.23;;;;;;;15.31;51.11;97957.38;8319241;28;20202;-86
2021/06/02 05:24:56;;;;;;;5.77;4.97;;;;;;;15.37;51.28;97970.03;8319349;28;20216;-86
2021/06/02 05:29:37;;;;;;;7.33;5.07;;;;;;;15.30;51.96;97958.28;8318845;28;20201;-86
2021/06/02 05:34:34;;;;;;;6.17;4.93;;;;;;;15.28;52.58;97968.00;8318805;28;20398;-85
2021/06/02 05:39:05;;;;;;;8.67;5.10;;;;;;;15.38;52.59;97966.50;8318657;28;20205;-85
2021/06/02 05:43:26;;;;;;;9.43;5.47;;;;;;;15.60;52.47;97963.31;8314726;28;20397;-85
2021/06/02 05:47:58;;;;;;;8.40;5.93;;;;;;;15.83;52.03;97961.84;8318399;28;20208;-86
2021/06/02 05:52:11;;;;;;;7.53;5.47;;;;;;;16.03;51.37;97957.09;8318253;28;20225;-87
2021/06/02 05:56:50;;;;;;;8.07;5.27;;;;;;;16.11;50.27;97967.03;8317918;28;20209;-87
2021/06/02 06:01:05;;;;;;;9.70;5.00;;;;;;;15.59;50.56;97964.28;8317911;28;20206;-87
2021/06/02 06:05:16;;;;;;;11.53;5.20;;;;;;;15.86;50.43;97960.81;8351288;28;20240;-87
2021/06/02 06:10:06;;;;;;;9.37;5.40;;;;;;;15.67;50.85;97963.78;8350922;28;20375;-87
2021/06/02 06:14:22;;;;;;;10.03;6.47;;;;;;;16.19;49.91;97970.78;8275256;28;20211;-86
2021/06/02 06:19:08;;;;;;;8.40;5.30;;;;;;;16.68;48.79;97968.38;8350402;28;20281;-87
2021/06/02 06:23:40;;;;;;;10.13;5.33;;;;;;;16.97;47.25;97969.84;8350808;28;20200;-87
2021/06/02 06:27:47;;;;;;;5.87;4.60;;;;;;;17.00;47.46;97960.94;8351796;28;20204;-86
2021/06/02 06:31:53;;;;;;;7.40;4.40;;;;;;;17.47;47.28;97972.41;8351541;28;20287;-87
2021/06/02 06:35:56;;;;;;;8.60;4.63;;;;;;;17.29;46.65;97974.56;8352178;28;20200;-85
2021/06/02 06:40:01;;;;;;;12.60;4.70;;;;;;;17.20;46.98;97968.19;8358269;28;20211;-88
2021/06/02 06:44:05;;;;;;;9.37;4.67;;;;;;;17.08;47.67;97970.88;8365543;28;20200;-90
2021/06/02 06:48:11;;;;;;;9.47;4.40;;;;;;;16.79;48.44;97971.94;8354942;28;20200;-89
2021/06/02 06:52:15;;;;;;;7.43;4.17;;;;;;;17.36;47.33;97980.19;8353192;28;20224;-89
2021/06/02 06:56:19;;;;;;;10.53;4.70;;;;;;;17.39;47.79;97975.56;8351911;28;20279;-87
2021/06/02 07:00:22;;;;;;;10.23;4.53;;;;;;;17.62;48.74;97967.84;8351613;28;20223;-87
2021/06/02 07:04:27;;;;;;;12.00;5.10;;;;;;;17.87;49.19;97982.59;8350745;28;20454;-86
2021/06/02 07:08:30;;;;;;;7.43;4.90;;;;;;;18.50;48.33;97970.00;8350409;28;20215;-86
2021/06/02 07:12:36;;;;;;;12.77;4.90;;;;;;;18.76;45.48;97975.88;8351756;28;20228;-86
2021/06/02 07:16:40;;;;;;;6.87;4.87;;;;;;;19.09;45.09;97976.81;8352569;28;20215;-87
2021/06/02 07:20:44;;;;;;;6.70;4.60;;;;;;;19.27;43.64;97985.03;8349481;28;20214;-86
2021/06/02 07:24:47;;;;;;;9.13;4.83;;;;;;;19.36;43.42;97980.84;8347216;28;20214;-88
2021/06/02 07:28:50;;;;;;;7.47;4.60;;;;;;;19.83;42.19;97975.34;8334104;28;20193;-89
2021/06/02 07:32:53;;;;;;;10.80;3.97;;;;;;;20.39;40.04;97977.69;8333618;28;20227;-89
2021/06/02 07:36:57;;;;;;;6.00;3.67;;;;;;;21.05;39.49;97973.84;8334651;28;20193;-88
2021/06/02 07:41:00;;;;;;;6.83;2.90;;;;;;;21.33;37.42;97971.44;8335053;28;20212;-90
2021/06/02 07:45:05;;;;;;;4.97;3.40;;;;;;;21.53;35.43;97978.41;8336530;28;20197;-93
2021/06/02 07:49:07;;;;;;;6.37;3.20;;;;;;;21.17;35.81;97985.97;8342431;28;20192;-93
2021/06/02 07:53:11;;;;;;;5.30;3.07;;;;;;;21.38;34.95;97977.97;8361260;28;20233;-91
2021/06/02 07:57:13;;;;;;;7.17;3.13;;;;;;;21.69;35.70;97975.25;8351084;28;20216;-92
2021/06/02 08:01:16;;;;;;;4.00;2.60;;;;;;;22.10;33.99;97981.19;8340800;28;20197;-91
2021/06/02 08:05:19;;;;;;;5.27;2.83;;;;;;;21.78;32.87;97971.78;8342997;28;20196;-93
2021/06/02 08:09:23;;;;;;;5.13;2.70;;;;;;;22.32;32.80;97988.00;8331625;28;20219;-90
2021/06/02 08:13:27;;;;;;;5.30;2.57;;;;;;;22.05;32.20;97983.44;8343620;28;20222;-90
2021/06/02 08:17:29;;;;;;;10.23;2.80;;;;;;;22.06;32.19;97987.72;8349445;28;20360;-89
2021/06/02 08:21:33;;;;;;;8.23;2.60;;;;;;;22.17;31.98;97977.03;8348918;28;20208;-90
2021/06/02 08:25:36;;;;;;;4.33;2.70;;;;;;;22.79;31.69;97988.03;8348371;28;20206;-89
2021/06/02 08:29:39;;;;;;;6.00;2.37;;;;;;;23.06;30.84;97990.88;8347964;28;20207;-86
2021/06/02 08:33:43;;;;;;;5.23;2.40;;;;;;;22.75;32.10;97989.28;8346913;28;20308;-89
2021/06/02 08:37:45;;;;;;;4.03;2.53;;;;;;;22.60;31.74;97981.00;8347484;28;20456;-88
2021/06/02 08:41:51;;;;;;;5.67;2.40;;;;;;;23.36;31.51;97966.78;8347319;28;20216;-89
2021/06/02 08:45:55;;;;;;;9.57;2.40;;;;;;;22.78;29.89;97972.31;8348066;28;20204;-88
2021/06/02 08:49:58;;;;;;;10.50;2.30;;;;;;;23.42;30.43;97978.56;8352043;28;20203;-89
2021/06/02 08:54:01;;;;;;;9.83;2.20;;;;;;;23.47;29.16;97976.28;8358752;28;20234;-88
2021/06/02 08:58:05;;;;;;;5.03;2.23;;;;;;;23.81;28.43;97971.19;8359848;28;20203;-88
2021/06/02 09:02:08;;;;;;;3.57;1.80;;;;;;;24.53;28.20;97964.97;8359406;28;20259;-87
2021/06/02 09:06:11;;;;;;;4.33;2.03;;;;;;;24.26;28.26;97972.06;8359376;28;20193;-88
2021/06/02 09:10:13;;;;;;;3.30;2.00;;;;;;;24.28;27.38;97963.97;8358512;28;20217;-88
2021/06/02 09:14:30;;;;;;;4.20;1.93;;;;;;;24.46;26.63;97962.09;8357784;28;20538;-88
2021/06/02 09:18:33;;;;;;;5.10;2.00;;;;;;;23.65;27.41;97962.28;8349946;28;20201;-85
2021/06/02 09:22:37;;;;;;;5.37;1.90;;;;;;;24.25;26.60;97977.50;8341272;28;20260;-85
2021/06/02 09:26:39;;;;;;;4.23;1.67;;;;;;;24.57;26.22;97964.50;8355197;28;20204;-87
2021/06/02 09:30:43;;;;;;;5.80;1.80;;;;;;;24.77;26.21;97972.25;8324937;28;20204;-87
2021/06/02 09:34:46;;;;;;;2.73;1.70;;;;;;;25.20;26.00;97973.06;8324748;28;20197;-90
2021/06/02 09:38:52;;;;;;;3.77;1.90;;;;;;;25.20;25.12;97977.53;8358709;28;20196;-86
2021/06/02 09:42:55;;;;;;;5.20;2.10;;;;;;;25.61;25.00;97965.25;8360394;28;20204;-85
2021/06/02 09:47:01;;;;;;;3.27;1.70;;;;;;;25.78;24.42;97971.41;8358515;28;20305;-88
2021/06/02 09:51:34;;;;;;;4.63;2.10;;;;;;;25.11;25.06;97966.06;8360515;28;20226;-88
2021/06/02 09:55:38;;;;;;;5.97;1.77;;;;;;;24.83;24.73;97961.00;8331519;28;20225;-88
2021/06/02 09:59:53;;;;;;;2.47;1.40;;;;;;;25.87;23.52;97954.47;8325266;28;20229;-89
2021/06/02 10:04:02;;;;;;;4.30;2.10;;;;;;;25.66;23.09;97960.25;8350603;28;20247;-88
2021/06/02 10:08:10;;;;;;;3.27;1.40;;;;;;;26.21;23.22;97956.16;8358922;28;20212;-90
2021/06/02 10:12:14;;;;;;;4.83;1.70;;;;;;;25.93;23.14;97950.38;8362564;28;20300;-90
2021/06/02 10:16:33;;;;;;;3.23;1.63;;;;;;;25.83;22.56;97960.28;8363253;28;20212;-90
2021/06/02 10:20:37;;;;;;;3.63;1.80;;;;;;;25.89;23.72;97944.56;8335581;28;20809;-88
2021/06/02 10:24:42;;;;;;;3.70;1.70;;;;;;;26.23;23.65;97953.34;8344038;28;20201;-87
2021/06/02 10:28:46;;;;;;;6.43;1.90;;;;;;;25.84;23.20;97968.09;8345443;28;20196;-88
2021/06/02 10:32:50;;;;;;;8.13;1.83;;;;;;;26.54;22.61;97964.09;8342519;28;20224;-87
2021/06/02 10:36:54;;;;;;;5.30;1.87;;;;;;;25.92;23.22;97954.03;8351861;28;20211;-88
2021/06/02 10:40:57;;;;;;;5.83;1.70;;;;;;;26.56;23.20;97955.94;8350505;28;20199;-88
2021/06/02 10:45:02;;;;;;;5.37;1.53;;;;;;;26.19;22.96;97968.75;8350459;28;20199;-88
2021/06/02 10:49:05;;;;;;;2.20;1.30;;;;;;;26.79;22.28;97950.75;8350417;28;20200;-90
2021/06/02 10:53:24;;;;;;;4.53;1.80;;;;;;;26.50;22.94;97976.00;8350006;28;20368;-87
2021/06/02 10:57:26;;;;;;;2.97;1.67;;;;;;;27.01;22.35;97959.78;8351138;28;20209;-87
2021/06/02 11:01:30;;;;;;;2.60;1.80;;;;;;;27.10;22.17;97951.59;8350097;28;20215;-88
2021/06/02 11:05:33;;;;;;;2.83;1.90;;;;;;;27.35;22.21;97956.00;8351323;28;20213;-86
2021/06/02 11:09:51;;;;;;;9.00;1.73;;;;;;;26.75;22.53;97954.75;8351552;28;20232;-88
2021/06/02 11:14:26;;;;;;;4.97;1.50;;;;;;;27.20;22.48;97955.88;8352092;28;20229;-88
2021/06/02 11:18:29;;;;;;;6.87;2.00;;;;;;;27.25;21.82;97951.72;8352873;28;20200;-87
2021/06/02 11:22:31;;;;;;;4.73;1.53;;;;;;;27.07;21.48;97951.97;8345511;28;20217;-88
2021/06/02 11:26:35;;;;;;;6.73;1.70;;;;;;;27.65;21.56;97954.31;8334621;28;20207;-93
2021/06/02 11:30:38;;;;;;;3.03;1.70;;;;;;;27.23;20.80;97950.22;8355554;28;20263;-91
2021/06/02 11:34:41;;;;;;;2.80;1.80;;;;;;;27.63;21.46;97953.69;8349478;28;20226;-89
2021/06/02 11:38:44;;;;;;;4.67;1.60;;;;;;;27.80;21.72;97944.56;8351509;28;20204;-89
2021/06/02 11:42:52;;;;;;;6.07;1.60;;;;;;;27.52;20.56;97946.91;8350480;28;20272;-87
2021/06/02 11:47:02;;;;;;;2.47;1.60;;;;;;;26.91;20.25;97952.84;8348421;28;20197;-86
2021/06/02 11:51:07;;;;;;;2.17;1.43;;;;;;;27.25;19.40;97950.91;8346872;28;20196;-86
2021/06/02 11:55:24;;;;;;;3.47;1.50;;;;;;;27.87;20.32;97949.97;8348278;28;20395;-86
2021/06/02 11:59:28;;;;;;;2.77;1.63;;;;;;;27.53;20.55;97945.09;8347782;28;20207;-86
2021/06/02 12:03:31;;;;;;;2.13;1.60;;;;;;;27.56;20.92;97952.72;8347721;28;20250;-86
2021/06/02 12:07:33;;;;;;;1.70;1.30;;;;;;;28.31;21.79;97948.47;8347632;28;20206;-85
2021/06/02 12:11:36;;;;;;;1.87;1.50;;;;;;;27.54;19.32;97949.41;8349143;28;20232;-86
2021/06/02 12:15:42;;;;;;;2.33;1.50;;;;;;;27.94;20.19;97947.47;8349360;28;20197;-89
2021/06/02 12:19:47;;;;;;;2.40;1.20;;;;;;;28.32;19.21;97939.47;8351296;28;20485;-88
2021/06/02 12:23:53;;;;;;;2.30;1.47;;;;;;;27.81;19.89;97938.22;8350905;28;20489;-87
2021/06/02 12:27:57;;;;;;;8.53;1.57;;;;;;;27.13;19.34;97944.28;8354713;28;20265;-86
2021/06/02 12:32:01;;;;;;;5.20;1.63;;;;;;;27.15;19.22;97940.47;8354603;28;20269;-87
2021/06/02 12:36:07;;;;;;;3.83;1.43;;;;;;;27.95;19.65;97939.31;8355896;28;20203;-88
2021/06/02 12:40:11;;;;;;;5.40;1.97;;;;;;;27.39;19.34;97939.50;8342683;28;20204;-87
2021/06/02 12:44:14;;;;;;;4.17;1.73;;;;;;;27.60;19.15;97941.53;8338297;28;20200;-89
2021/06/02 12:48:30;;;;;;;1.73;1.30;;;;;;;28.10;18.12;97930.53;8338244;28;20203;-88
2021/06/02 12:52:35;;;;;;;5.27;1.90;;;;;;;27.87;19.02;97934.00;8339570;28;20225;-89
2021/06/02 12:56:42;;;;;;;2.00;1.50;;;;;;;27.56;18.61;97936.75;8353517;28;20203;-89
2021/06/02 13:00:46;;;;;;;2.37;1.50;;;;;;;27.64;19.20;97942.00;8353740;28;20259;-88
2021/06/02 13:04:50;;;;;;;2.53;1.40;;;;;;;28.21;18.37;97938.91;8353205;28;20239;-88
2021/06/02 13:08:54;;;;;;;3.47;1.63;;;;;;;28.44;17.85;97930.03;8354129;28;20234;-87
2021/06/02 13:12:59;;;;;;;3.40;1.33;;;;;;;27.76;18.34;97945.94;8353727;28;20232;-89
2021/06/02 13:17:01;;;;;;;4.70;1.40;;;;;;;27.93;18.51;97932.50;8353728;28;20201;-88
2021/06/02 13:21:13;;;;;;;3.37;1.37;;;;;;;27.61;17.79;97935.22;8354451;28;20221;-87
2021/06/02 13:25:19;;;;;;;6.27;1.50;;;;;;;27.96;17.87;97932.97;8351608;28;20215;-89
2021/06/02 13:29:22;;;;;;;3.03;1.50;;;;;;;28.26;18.04;97925.06;8340851;28;20201;-87
2021/06/02 13:33:25;;;;;;;3.20;1.40;;;;;;;28.29;17.26;97927.34;8331767;28;20231;-89
2021/06/02 13:37:31;;;;;;;1.97;1.10;;;;;;;28.63;17.86;97926.03;8324568;28;20392;-89
2021/06/02 13:41:34;;;;;;;4.80;1.40;;;;;;;28.34;18.10;97927.63;8326817;28;20206;-91
2021/06/02 13:45:43;;;;;;;3.63;1.40;;;;;;;27.95;18.20;97926.03;8323489;28;20208;-89
2021/06/02 13:49:46;;;;;;;2.17;1.30;;;;;;;27.82;17.57;97918.59;8326683;28;20220;-89
2021/06/02 13:54:16;;;;;;;3.93;1.40;;;;;;;28.43;17.94;97915.88;8336925;28;20220;-87
2021/06/02 13:58:19;;;;;;;2.20;1.40;;;;;;;28.14;16.94;97916.69;8352438;28;20209;-90
2021/06/02 14:02:22;;;;;;;2.83;1.40;;;;;;;28.11;17.60;97917.03;8352848;28;20542;-88
2021/06/02 14:06:25;;;;;;;3.30;1.30;;;;;;;28.11;16.51;97924.22;8351335;28;20221;-85
2021/06/02 14:10:29;;;;;;;2.70;1.20;;;;;;;28.52;17.08;97924.66;8352311;28;20222;-88
2021/06/02 14:14:31;;;;;;;4.33;1.30;;;;;;;28.19;16.81;97919.63;8356616;28;20232;-87
2021/06/02 14:18:36;;;;;;;2.37;1.17;;;;;;;27.74;16.53;97907.19;8351766;28;20205;-87
2021/06/02 14:22:39;;;;;;;5.97;1.20;;;;;;;27.67;16.06;97931.03;8353475;28;20212;-89
2021/06/02 14:26:45;;;;;;;1.77;1.00;;;;;;;28.16;16.21;97925.31;8352962;28;20222;-88
2021/06/02 14:30:48;;;;;;;3.90;1.07;;;;;;;28.65;16.79;97930.16;8351275;28;20279;-88
2021/06/02 14:34:51;;;;;;;3.87;1.60;;;;;;;28.68;16.59;97920.16;8353635;28;20231;-87
2021/06/02 14:38:54;;;;;;;4.10;1.17;;;;;;;28.19;16.19;97924.13;8350148;28;20201;-86
2021/06/02 14:42:57;;;;;;;2.70;1.20;;;;;;;28.30;15.93;97926.34;8350411;28;20391;-87
2021/06/02 14:47:01;;;;;;;4.00;1.30;;;;;;;28.17;15.99;97934.13;8328645;28;20199;-87
2021/06/02 14:51:05;;;;;;;1.80;1.20;;;;;;;28.15;16.73;97939.63;8318916;28;20213;-87
2021/06/02 14:55:09;;;;;;;3.37;1.60;;;;;;;27.13;16.75;97931.84;8318922;28;20392;-87
2021/06/02 14:59:13;;;;;;;5.60;1.30;;;;;;;27.60;16.93;97932.75;8320277;28;20201;-84
2021/06/02 15:03:15;;;;;;;2.57;1.20;;;;;;;27.80;16.77;97933.91;8337557;28;20246;-87
2021/06/02 15:07:18;;;;;;;2.43;1.30;;;;;;;27.56;17.05;97926.13;8349175;28;20486;-87
2021/06/02 15:11:21;;;;;;;2.07;1.20;;;;;;;27.62;16.29;97925.41;8348496;28;20228;-87
2021/06/02 15:15:27;;;;;;;3.03;1.23;;;;;;;27.44;15.74;97923.06;8349108;28;20242;-88
2021/06/02 15:19:30;;;;;;;2.73;1.00;;;;;;;27.64;16.50;97924.22;8351463;28;20208;-87
2021/06/02 15:23:32;;;;;;;4.23;1.10;;;;;;;27.40;15.94;97916.44;8351448;28;20396;-89
2021/06/02 15:27:36;;;;;;;5.40;1.40;;;;;;;27.32;16.77;97909.31;8348949;28;20215;-87
2021/06/02 15:31:43;;;;;;;1.50;1.30;;;;;;;27.50;17.54;97915.19;8341946;28;20195;-87
2021/06/02 15:35:46;;;;;;;2.00;1.30;;;;;;;27.26;17.89;97916.19;8320177;28;20419;-87
2021/06/02 15:39:50;;;;;;;3.23;1.40;;;;;;;27.00;17.76;97913.81;8316344;28;20207;-87
2021/06/02 15:43:52;;;;;;;1.97;1.00;;;;;;;27.08;17.57;97907.63;8316306;28;20202;-86
2021/06/02 15:47:58;;;;;;;2.97;1.47;;;;;;;27.23;17.54;97894.41;8315688;28;20209;-87
2021/06/02 15:52:03;;;;;;;3.60;1.60;;;;;;;27.19;17.40;97893.94;8315994;28;20478;-87
2021/06/02 15:56:08;;;;;;;3.53;1.23;;;;;;;26.99;18.41;97885.56;8314319;28;20367;-87
2021/06/02 16:00:13;;;;;;;3.33;1.50;;;;;;;26.89;18.14;97888.44;8314216;28;20208;-88
2021/06/02 16:04:17;;;;;;;2.30;1.60;;;;;;;26.89;18.28;97884.97;8340714;28;20244;-88
2021/06/02 16:08:20;;;;;;;5.47;1.50;;;;;;;26.69;18.66;97895.16;8346825;28;20504;-85
2021/06/02 16:12:23;;;;;;;4.20;1.60;;;;;;;26.77;17.73;97886.34;8344975;28;20203;-87
2021/06/02 16:16:26;;;;;;;1.97;1.03;;;;;;;26.88;18.02;97888.59;8334320;28;20350;-86
2021/06/02 16:20:30;;;;;;;6.07;1.97;;;;;;;26.70;17.81;97886.22;8314081;28;20228;-88
2021/06/02 16:24:32;;;;;;;4.23;1.57;;;;;;;26.56;18.50;97884.22;8314065;28;20202;-87
2021/06/02 16:28:35;;;;;;;2.80;1.47;;;;;;;26.52;18.77;97887.25;8314471;28;20224;-87
2021/06/02 16:32:38;;;;;;;5.20;1.50;;;;;;;26.46;19.00;97885.25;8314344;28;20230;-88
2021/06/02 16:36:41;;;;;;;7.37;1.53;;;;;;;26.47;19.37;97894.06;8315113;28;20249;-86
2021/06/02 16:40:44;;;;;;;1.57;1.27;;;;;;;26.49;18.47;97884.91;8347021;28;20197;-88
2021/06/02 16:44:46;;;;;;;4.83;2.73;;;;;;;26.33;17.97;97874.34;8345670;28;20397;-87
2021/06/02 16:48:49;;;;;;;6.23;1.40;;;;;;;26.17;17.97;97880.53;8332509;28;20296;-88
2021/06/02 16:52:56;;;;;;;3.57;1.30;;;;;;;26.08;17.95;97887.69;8317483;28;20230;-86
2021/06/02 16:57:00;;;;;;;3.33;1.50;;;;;;;26.01;18.95;97884.06;8345899;28;20272;-86
2021/06/02 17:01:03;;;;;;;4.97;1.53;;;;;;;26.03;18.55;97884.72;8335346;28;20325;-88
2021/06/02 17:05:06;;;;;;;3.43;1.40;;;;;;;26.18;19.07;97889.31;8320297;28;20239;-87
2021/06/02 17:09:10;;;;;;;2.77;1.40;;;;;;;25.99;18.62;97891.34;8349075;28;20523;-87
2021/06/02 17:13:13;;;;;;;3.80;1.60;;;;;;;25.86;18.43;97891.81;8353016;28;20235;-86
2021/06/02 17:17:20;;;;;;;5.40;1.30;;;;;;;25.81;18.24;97888.84;8333072;28;20198;-87
2021/06/02 17:21:25;;;;;;;4.53;1.40;;;;;;;25.51;17.30;97904.44;8331301;28;20199;-86
2021/06/02 17:25:30;;;;;;;5.70;1.90;;;;;;;25.61;17.47;97898.97;8329904;28;20196;-87
2021/06/02 17:29:34;;;;;;;2.00;1.40;;;;;;;25.62;17.53;97897.94;8352194;28;20212;-86
2021/06/02 17:33:38;;;;;;;5.20;1.40;;;;;;;25.53;17.72;97913.03;8351345;28;20237;-86
2021/06/02 17:37:40;;;;;;;2.33;1.50;;;;;;;25.58;17.75;97912.53;8331110;28;20376;-86
2021/06/02 17:41:44;;;;;;;1.70;1.40;;;;;;;25.45;17.58;97914.84;8350750;28;20549;-87
2021/06/02 17:45:47;;;;;;;1.80;1.20;;;;;;;25.38;17.65;97919.13;8342733;28;20200;-87
2021/06/02 17:49:50;;;;;;;1.60;1.33;;;;;;;25.51;18.28;97924.78;8351086;28;20487;-88
2021/06/02 17:53:54;;;;;;;3.67;1.33;;;;;;;25.23;18.26;97935.69;8321072;28;20225;-85
2021/06/02 17:57:58;;;;;;;3.33;1.10;;;;;;;25.34;19.16;97932.72;8320052;28;20217;-84
2021/06/02 18:02:00;;;;;;;3.17;1.40;;;;;;;25.21;18.88;97947.38;8327781;28;20232;-86
2021/06/02 18:06:03;;;;;;;2.73;1.30;;;;;;;25.16;18.92;97943.41;8355284;28;20226;-88
2021/06/02 18:10:08;;;;;;;3.47;1.23;;;;;;;25.04;19.43;97936.75;8328137;28;20296;-87
2021/06/02 18:14:12;;;;;;;2.13;1.30;;;;;;;25.09;19.65;97941.56;8320434;28;20302;-89
2021/06/02 18:18:21;;;;;;;2.83;1.40;;;;;;;25.08;20.27;97950.50;8355478;28;20358;-90
2021/06/02 18:22:26;;;;;;;3.73;2.17;;;;;;;25.01;20.39;97941.53;8354590;28;20204;-89
2021/06/02 18:26:29;;;;;;;2.83;1.40;;;;;;;24.92;20.22;97954.75;8356140;28;20196;-89
2021/06/02 18:30:34;;;;;;;3.90;1.40;;;;;;;24.84;20.82;97951.22;8359548;28;20200;-89
2021/06/02 18:34:37;;;;;;;2.40;1.33;;;;;;;24.70;21.01;97940.25;8346984;28;20224;-89
2021/06/02 18:38:40;;;;;;;3.50;1.90;;;;;;;24.66;21.43;97946.03;8343074;28;20204;-89
2021/06/02 18:42:43;;;;;;;5.07;1.90;;;;;;;24.58;21.38;97955.59;8333822;28;20402;-89
2021/06/02 18:46:47;;;;;;;5.10;1.40;;;;;;;24.46;21.82;97954.16;8332448;28;20207;-89
2021/06/02 18:50:51;;;;;;;6.40;1.43;;;;;;;24.37;21.71;97953.28;8318573;28;20396;-88
2021/06/02 18:54:53;;;;;;;1.50;1.40;;;;;;;24.40;22.13;97962.72;8317933;28;20239;-89
2021/06/02 18:58:57;;;;;;;3.53;1.57;;;;;;;24.26;21.89;97963.28;8320452;28;20385;-89
2021/06/02 19:03:01;;;;;;;1.87;1.53;;;;;;;24.24;22.23;97975.81;8319215;28;20243;-87
2021/06/02 19:07:04;;;;;;;2.57;1.93;;;;;;;24.13;23.67;97983.03;8319161;28;20216;-89
2021/06/02 19:11:07;;;;;;;4.10;1.70;;;;;;;24.04;25.21;97989.22;8347477;28;20220;-88
2021/06/02 19:15:11;;;;;;;5.37;2.47;;;;;;;23.92;26.69;97998.41;8350801;28;20232;-89
2021/06/02 19:19:15;;;;;;;4.63;3.00;;;;;;;23.85;28.26;98003.44;8350168;28;20218;-89
2021/06/02 19:23:18;;;;;;;5.87;2.77;;;;;;;23.71;30.14;98015.34;8350294;28;20322;-89
2021/06/02 19:27:21;;;;;;;5.30;2.70;;;;;;;23.57;30.11;98022.00;8349006;28;20303;-88